sensor_id;sensor_type;location;lat;lon;timestamp;temperature;humidity
2391;DHT22;22957;50.824;4.360;2022-09-09T00:03:44;17.00;99.90
2391;DHT22;22957;50.824;4.360;2022-09-09T00:06:37;16.90;99.90
2391;DHT22;22957;50.824;4.360;2022-09-09T00:09:18;16.90;99.90
2391;DHT22;22957;50.824;4.360;2022-09-09T00:12:00;17.00;99.90
2391;DHT22;22957;50.824;4.360;2022-09-09T00:17:11;16.70;99.90
2391;DHT22;22957;50.824;4.360;2022-09-09T00:20:14;16.70;99.90
2391;DHT22;22957;50.824;4.360;2022-09-09T00:23:10;16.90;99.90
2391;DHT22;22957;50.824;4.360;2022-09-09T00:25:42;16.80;99.90
2391;DHT22;22957;50.824;4.360;2022-09-09T00:28:25;16.80;99.90
2391;DHT22;22957;50.824;4.360;2022-09-09T00:30:50;17.00;99.90
2391;DHT22;22957;50.824;4.360;2022-09-09T00:33:19;17.00;99.90
2391;DHT22;22957;50.824;4.360;2022-09-09T00:35:50;17.00;99.90
2391;DHT22;22957;50.824;4.360;2022-09-09T00:38:25;17.00;99.90
2391;DHT22;22957;50.824;4.360;2022-09-09T00:41:03;17.40;99.90
2391;DHT22;22957;50.824;4.360;2022-09-09T00:43:32;17.60;99.90
2391;DHT22;22957;50.824;4.360;2022-09-09T00:57:02;17.50;99.90
2391;DHT22;22957;50.824;4.360;2022-09-09T01:02:21;17.80;99.90
2391;DHT22;22957;50.824;4.360;2022-09-09T01:04:50;17.70;99.90
2391;DHT22;22957;50.824;4.360;2022-09-09T01:07:19;17.80;99.90
2391;DHT22;22957;50.824;4.360;2022-09-09T01:09:52;17.70;99.90
2391;DHT22;22957;50.824;4.360;2022-09-09T01:12:44;17.80;99.90
2391;DHT22;22957;50.824;4.360;2022-09-09T01:15:31;17.70;99.90
2391;DHT22;22957;50.824;4.360;2022-09-09T01:18:05;17.80;99.90
2391;DHT22;22957;50.824;4.360;2022-09-09T01:20:51;17.60;99.90
2391;DHT22;22957;50.824;4.360;2022-09-09T01:23:35;17.70;99.90
2391;DHT22;22957;50.824;4.360;2022-09-09T01:28:49;17.60;99.90
2391;DHT22;22957;50.824;4.360;2022-09-09T01:31:34;17.50;99.90
2391;DHT22;22957;50.824;4.360;2022-09-09T01:34:01;17.50;99.90
2391;DHT22;22957;50.824;4.360;2022-09-09T01:36:41;17.40;99.90
2391;DHT22;22957;50.824;4.360;2022-09-09T01:39:08;17.50;99.90
2391;DHT22;22957;50.824;4.360;2022-09-09T01:41:34;17.30;99.90
2391;DHT22;22957;50.824;4.360;2022-09-09T01:44:00;17.40;99.90
2391;DHT22;22957;50.824;4.360;2022-09-09T01:46:26;17.30;99.90
2391;DHT22;22957;50.824;4.360;2022-09-09T01:48:53;17.50;99.90
2391;DHT22;22957;50.824;4.360;2022-09-09T01:51:20;17.30;99.90
2391;DHT22;22957;50.824;4.360;2022-09-09T01:53:46;17.40;99.90
2391;DHT22;22957;50.824;4.360;2022-09-09T01:56:28;17.60;99.90
2391;DHT22;22957;50.824;4.360;2022-09-09T02:04:09;17.30;99.90
2391;DHT22;22957;50.824;4.360;2022-09-09T02:06:40;17.50;99.90
2391;DHT22;22957;50.824;4.360;2022-09-09T02:09:07;17.40;99.90
2391;DHT22;22957;50.824;4.360;2022-09-09T02:11:36;17.50;99.90
2391;DHT22;22957;50.824;4.360;2022-09-09T02:14:06;17.40;99.90
2391;DHT22;22957;50.824;4.360;2022-09-09T02:17:03;17.50;99.90
2391;DHT22;22957;50.824;4.360;2022-09-09T02:19:55;17.70;99.90
2391;DHT22;22957;50.824;4.360;2022-09-09T02:22:24;17.40;99.90
2391;DHT22;22957;50.824;4.360;2022-09-09T02:24:51;17.50;99.90
2391;DHT22;22957;50.824;4.360;2022-09-09T02:27:20;17.40;99.90
2391;DHT22;22957;50.824;4.360;2022-09-09T02:29:47;17.60;99.90
2391;DHT22;22957;50.824;4.360;2022-09-09T02:32:18;17.40;99.90
2391;DHT22;22957;50.824;4.360;2022-09-09T02:34:57;17.20;99.90
2391;DHT22;22957;50.824;4.360;2022-09-09T02:37:32;17.60;99.90
2391;DHT22;22957;50.824;4.360;2022-09-09T02:40:02;17.50;99.90
2391;DHT22;22957;50.824;4.360;2022-09-09T02:42:28;17.40;99.90
2391;DHT22;22957;50.824;4.360;2022-09-09T02:44:54;17.60;99.90
2391;DHT22;22957;50.824;4.360;2022-09-09T02:47:34;17.50;99.90
2391;DHT22;22957;50.824;4.360;2022-09-09T02:50:11;17.60;99.90
2391;DHT22;22957;50.824;4.360;2022-09-09T02:55:45;17.50;99.90
2391;DHT22;22957;50.824;4.360;2022-09-09T02:58:15;17.30;99.90
2391;DHT22;22957;50.824;4.360;2022-09-09T03:00:47;17.60;99.90
2391;DHT22;22957;50.824;4.360;2022-09-09T03:03:13;17.40;99.90
2391;DHT22;22957;50.824;4.360;2022-09-09T03:05:41;17.40;99.90
2391;DHT22;22957;50.824;4.360;2022-09-09T03:08:07;17.20;99.90
2391;DHT22;22957;50.824;4.360;2022-09-09T03:10:33;17.50;99.90
2391;DHT22;22957;50.824;4.360;2022-09-09T03:13:00;17.30;99.90
2391;DHT22;22957;50.824;4.360;2022-09-09T03:15:26;17.50;99.90
2391;DHT22;22957;50.824;4.360;2022-09-09T03:17:55;17.30;99.90
2391;DHT22;22957;50.824;4.360;2022-09-09T03:20:23;17.40;99.90
2391;DHT22;22957;50.824;4.360;2022-09-09T03:22:48;17.30;99.90
2391;DHT22;22957;50.824;4.360;2022-09-09T03:25:15;17.40;99.90
2391;DHT22;22957;50.824;4.360;2022-09-09T03:27:40;17.50;99.90
2391;DHT22;22957;50.824;4.360;2022-09-09T03:30:06;17.30;99.90
2391;DHT22;22957;50.824;4.360;2022-09-09T03:32:32;17.30;99.90
2391;DHT22;22957;50.824;4.360;2022-09-09T03:34:58;17.20;99.90
2391;DHT22;22957;50.824;4.360;2022-09-09T03:37:24;17.40;99.90
2391;DHT22;22957;50.824;4.360;2022-09-09T03:39:49;16.90;99.90
2391;DHT22;22957;50.824;4.360;2022-09-09T03:42:15;17.20;99.90
2391;DHT22;22957;50.824;4.360;2022-09-09T03:44:45;17.00;99.90
2391;DHT22;22957;50.824;4.360;2022-09-09T03:47:18;17.30;99.90
2391;DHT22;22957;50.824;4.360;2022-09-09T03:49:45;17.20;99.90
2391;DHT22;22957;50.824;4.360;2022-09-09T03:52:11;17.40;99.90
2391;DHT22;22957;50.824;4.360;2022-09-09T03:54:37;17.50;99.90
2391;DHT22;22957;50.824;4.360;2022-09-09T03:57:03;17.50;99.90
2391;DHT22;22957;50.824;4.360;2022-09-09T03:59:30;17.30;99.90
2391;DHT22;22957;50.824;4.360;2022-09-09T04:01:55;17.30;99.90
2391;DHT22;22957;50.824;4.360;2022-09-09T04:04:22;17.30;99.90
2391;DHT22;22957;50.824;4.360;2022-09-09T04:06:48;17.40;99.90
2391;DHT22;22957;50.824;4.360;2022-09-09T04:09:14;17.40;99.90
2391;DHT22;22957;50.824;4.360;2022-09-09T04:11:40;17.40;99.90
2391;DHT22;22957;50.824;4.360;2022-09-09T04:14:06;17.50;99.90
2391;DHT22;22957;50.824;4.360;2022-09-09T04:16:33;17.60;99.90
2391;DHT22;22957;50.824;4.360;2022-09-09T04:18:59;17.40;99.90
2391;DHT22;22957;50.824;4.360;2022-09-09T04:21:25;17.00;99.90
2391;DHT22;22957;50.824;4.360;2022-09-09T04:23:51;17.50;99.90
2391;DHT22;22957;50.824;4.360;2022-09-09T04:26:18;17.60;99.90
2391;DHT22;22957;50.824;4.360;2022-09-09T04:28:44;17.40;99.90
2391;DHT22;22957;50.824;4.360;2022-09-09T04:31:18;17.40;99.90
2391;DHT22;22957;50.824;4.360;2022-09-09T04:33:44;17.50;99.90
2391;DHT22;22957;50.824;4.360;2022-09-09T04:36:10;17.40;99.90
2391;DHT22;22957;50.824;4.360;2022-09-09T04:38:35;17.60;99.90
2391;DHT22;22957;50.824;4.360;2022-09-09T04:41:01;17.20;99.90
2391;DHT22;22957;50.824;4.360;2022-09-09T04:43:27;17.20;99.90
2391;DHT22;22957;50.824;4.360;2022-09-09T04:45:53;17.30;99.90
2391;DHT22;22957;50.824;4.360;2022-09-09T04:48:19;17.10;99.90
2391;DHT22;22957;50.824;4.360;2022-09-09T04:53:22;17.40;99.90
2391;DHT22;22957;50.824;4.360;2022-09-09T04:55:47;17.30;99.90
2391;DHT22;22957;50.824;4.360;2022-09-09T04:58:14;17.40;99.90
2391;DHT22;22957;50.824;4.360;2022-09-09T05:00:40;17.40;99.90
2391;DHT22;22957;50.824;4.360;2022-09-09T05:03:06;17.60;99.90
2391;DHT22;22957;50.824;4.360;2022-09-09T05:05:33;17.60;99.90
2391;DHT22;22957;50.824;4.360;2022-09-09T05:08:03;17.20;99.90
2391;DHT22;22957;50.824;4.360;2022-09-09T05:10:29;17.00;99.90
2391;DHT22;22957;50.824;4.360;2022-09-09T05:12:55;17.20;99.90
2391;DHT22;22957;50.824;4.360;2022-09-09T05:15:21;17.30;99.90
2391;DHT22;22957;50.824;4.360;2022-09-09T05:17:47;17.30;99.90
2391;DHT22;22957;50.824;4.360;2022-09-09T05:20:13;17.20;99.90
2391;DHT22;22957;50.824;4.360;2022-09-09T05:22:38;17.40;99.90
2391;DHT22;22957;50.824;4.360;2022-09-09T05:25:04;17.90;99.90
2391;DHT22;22957;50.824;4.360;2022-09-09T05:27:30;17.50;99.90
2391;DHT22;22957;50.824;4.360;2022-09-09T05:29:59;17.60;99.90
2391;DHT22;22957;50.824;4.360;2022-09-09T05:32:25;17.80;99.90
2391;DHT22;22957;50.824;4.360;2022-09-09T05:34:51;18.00;99.90
2391;DHT22;22957;50.824;4.360;2022-09-09T05:37:18;18.00;99.90
2391;DHT22;22957;50.824;4.360;2022-09-09T05:39:44;18.00;99.90
2391;DHT22;22957;50.824;4.360;2022-09-09T05:42:10;17.80;99.90
2391;DHT22;22957;50.824;4.360;2022-09-09T05:44:35;18.10;99.90
2391;DHT22;22957;50.824;4.360;2022-09-09T05:47:02;18.10;99.90
2391;DHT22;22957;50.824;4.360;2022-09-09T05:49:28;17.70;99.90
2391;DHT22;22957;50.824;4.360;2022-09-09T05:51:54;18.10;99.90
2391;DHT22;22957;50.824;4.360;2022-09-09T05:54:19;17.80;99.90
2391;DHT22;22957;50.824;4.360;2022-09-09T05:56:45;18.10;99.90
2391;DHT22;22957;50.824;4.360;2022-09-09T05:59:11;17.90;99.90
2391;DHT22;22957;50.824;4.360;2022-09-09T06:01:38;18.20;99.90
2391;DHT22;22957;50.824;4.360;2022-09-09T06:04:07;18.80;99.90
2391;DHT22;22957;50.824;4.360;2022-09-09T06:06:35;18.90;99.90
2391;DHT22;22957;50.824;4.360;2022-09-09T06:09:03;18.80;99.90
2391;DHT22;22957;50.824;4.360;2022-09-09T06:11:32;18.90;99.90
2391;DHT22;22957;50.824;4.360;2022-09-09T06:13:58;19.00;99.90
2391;DHT22;22957;50.824;4.360;2022-09-09T06:16:26;19.30;99.90
2391;DHT22;22957;50.824;4.360;2022-09-09T06:18:54;19.70;99.90
2391;DHT22;22957;50.824;4.360;2022-09-09T06:21:28;20.40;99.90
2391;DHT22;22957;50.824;4.360;2022-09-09T06:23:56;20.20;99.90
2391;DHT22;22957;50.824;4.360;2022-09-09T06:26:28;20.00;99.90
2391;DHT22;22957;50.824;4.360;2022-09-09T06:28:56;19.90;99.90
2391;DHT22;22957;50.824;4.360;2022-09-09T06:31:25;19.70;99.90
2391;DHT22;22957;50.824;4.360;2022-09-09T06:33:53;19.80;99.90
2391;DHT22;22957;50.824;4.360;2022-09-09T06:36:30;20.00;99.90
2391;DHT22;22957;50.824;4.360;2022-09-09T06:38:56;19.80;99.90
2391;DHT22;22957;50.824;4.360;2022-09-09T06:41:24;19.70;99.90
2391;DHT22;22957;50.824;4.360;2022-09-09T06:43:51;19.50;99.90
2391;DHT22;22957;50.824;4.360;2022-09-09T06:46:25;19.50;99.90
2391;DHT22;22957;50.824;4.360;2022-09-09T06:48:54;19.20;99.90
2391;DHT22;22957;50.824;4.360;2022-09-09T06:51:26;18.80;99.90
2391;DHT22;22957;50.824;4.360;2022-09-09T06:53:57;19.20;99.90
2391;DHT22;22957;50.824;4.360;2022-09-09T06:56:29;19.10;99.90
2391;DHT22;22957;50.824;4.360;2022-09-09T06:58:56;19.10;99.90
2391;DHT22;22957;50.824;4.360;2022-09-09T07:01:29;19.20;99.90
2391;DHT22;22957;50.824;4.360;2022-09-09T07:03:56;19.40;99.90
2391;DHT22;22957;50.824;4.360;2022-09-09T07:06:29;19.00;99.90
2391;DHT22;22957;50.824;4.360;2022-09-09T07:09:01;19.10;99.90
2391;DHT22;22957;50.824;4.360;2022-09-09T07:11:31;18.80;99.90
2391;DHT22;22957;50.824;4.360;2022-09-09T07:13:58;19.00;99.90
2391;DHT22;22957;50.824;4.360;2022-09-09T07:16:27;18.60;99.90
2391;DHT22;22957;50.824;4.360;2022-09-09T07:18:53;18.40;99.90
2391;DHT22;22957;50.824;4.360;2022-09-09T07:21:23;18.70;99.90
2391;DHT22;22957;50.824;4.360;2022-09-09T07:23:49;18.60;99.90
2391;DHT22;22957;50.824;4.360;2022-09-09T07:26:18;18.50;99.90
2391;DHT22;22957;50.824;4.360;2022-09-09T07:28:50;18.60;99.90
2391;DHT22;22957;50.824;4.360;2022-09-09T07:31:18;19.00;99.90
2391;DHT22;22957;50.824;4.360;2022-09-09T07:33:44;19.00;99.90
2391;DHT22;22957;50.824;4.360;2022-09-09T07:36:17;19.20;99.90
2391;DHT22;22957;50.824;4.360;2022-09-09T07:38:46;19.30;99.90
2391;DHT22;22957;50.824;4.360;2022-09-09T07:41:14;18.70;99.90
2391;DHT22;22957;50.824;4.360;2022-09-09T07:43:43;18.50;99.90
2391;DHT22;22957;50.824;4.360;2022-09-09T07:46:10;18.60;99.90
2391;DHT22;22957;50.824;4.360;2022-09-09T07:48:39;18.50;99.90
2391;DHT22;22957;50.824;4.360;2022-09-09T07:51:14;18.50;99.90
2391;DHT22;22957;50.824;4.360;2022-09-09T07:53:48;18.30;99.90
2391;DHT22;22957;50.824;4.360;2022-09-09T07:56:16;18.40;99.90
2391;DHT22;22957;50.824;4.360;2022-09-09T07:58:47;18.30;99.90
2391;DHT22;22957;50.824;4.360;2022-09-09T08:01:17;18.30;99.90
2391;DHT22;22957;50.824;4.360;2022-09-09T08:04:02;18.50;99.90
2391;DHT22;22957;50.824;4.360;2022-09-09T08:06:33;18.80;99.90
2391;DHT22;22957;50.824;4.360;2022-09-09T08:09:00;18.90;99.90
2391;DHT22;22957;50.824;4.360;2022-09-09T08:11:27;19.50;99.90
2391;DHT22;22957;50.824;4.360;2022-09-09T08:13:54;20.40;99.90
2391;DHT22;22957;50.824;4.360;2022-09-09T08:16:22;19.90;99.90
2391;DHT22;22957;50.824;4.360;2022-09-09T08:18:49;20.40;99.90
2391;DHT22;22957;50.824;4.360;2022-09-09T08:21:30;20.80;99.90
2391;DHT22;22957;50.824;4.360;2022-09-09T08:23:58;20.40;99.90
2391;DHT22;22957;50.824;4.360;2022-09-09T08:26:31;20.50;99.90
2391;DHT22;22957;50.824;4.360;2022-09-09T08:28:58;20.70;99.90
2391;DHT22;22957;50.824;4.360;2022-09-09T08:31:27;20.50;99.90
2391;DHT22;22957;50.824;4.360;2022-09-09T08:33:57;20.20;99.90
2391;DHT22;22957;50.824;4.360;2022-09-09T08:36:26;20.10;99.90
2391;DHT22;22957;50.824;4.360;2022-09-09T08:38:55;20.00;99.90
2391;DHT22;22957;50.824;4.360;2022-09-09T08:44:31;20.30;99.90
2391;DHT22;22957;50.824;4.360;2022-09-09T08:47:21;19.70;99.90
2391;DHT22;22957;50.824;4.360;2022-09-09T08:52:23;19.40;99.90
2391;DHT22;22957;50.824;4.360;2022-09-09T08:54:51;19.30;99.90
2391;DHT22;22957;50.824;4.360;2022-09-09T08:57:27;19.30;99.90
2391;DHT22;22957;50.824;4.360;2022-09-09T08:59:55;18.90;99.90
2391;DHT22;22957;50.824;4.360;2022-09-09T09:04:56;19.30;99.90
2391;DHT22;22957;50.824;4.360;2022-09-09T09:07:46;19.60;99.90
2391;DHT22;22957;50.824;4.360;2022-09-09T09:12:47;19.10;99.90
2391;DHT22;22957;50.824;4.360;2022-09-09T09:15:19;19.40;99.90
2391;DHT22;22957;50.824;4.360;2022-09-09T09:17:46;19.40;99.90
2391;DHT22;22957;50.824;4.360;2022-09-09T09:20:15;19.00;99.90
2391;DHT22;22957;50.824;4.360;2022-09-09T09:22:51;18.60;99.90
2391;DHT22;22957;50.824;4.360;2022-09-09T09:30:36;18.70;99.90
2391;DHT22;22957;50.824;4.360;2022-09-09T09:33:24;18.50;99.90
2391;DHT22;22957;50.824;4.360;2022-09-09T09:35:52;18.40;99.90
2391;DHT22;22957;50.824;4.360;2022-09-09T09:38:27;18.50;99.90
2391;DHT22;22957;50.824;4.360;2022-09-09T09:40:57;18.70;99.90
2391;DHT22;22957;50.824;4.360;2022-09-09T09:43:30;18.60;99.90
2391;DHT22;22957;50.824;4.360;2022-09-09T09:45:57;18.50;99.90
2391;DHT22;22957;50.824;4.360;2022-09-09T09:48:27;18.90;99.90
2391;DHT22;22957;50.824;4.360;2022-09-09T09:51:01;18.60;99.90
2391;DHT22;22957;50.824;4.360;2022-09-09T09:53:30;18.60;99.90
2391;DHT22;22957;50.824;4.360;2022-09-09T09:56:04;18.80;99.90
2391;DHT22;22957;50.824;4.360;2022-09-09T09:58:33;19.10;99.90
2391;DHT22;22957;50.824;4.360;2022-09-09T10:01:04;19.10;99.90
2391;DHT22;22957;50.824;4.360;2022-09-09T10:03:33;19.30;99.90
2391;DHT22;22957;50.824;4.360;2022-09-09T10:06:03;19.60;99.90
2391;DHT22;22957;50.824;4.360;2022-09-09T10:08:32;19.60;99.90
2391;DHT22;22957;50.824;4.360;2022-09-09T10:19:13;19.40;99.90
2391;DHT22;22957;50.824;4.360;2022-09-09T10:36:32;19.40;99.90
2391;DHT22;22957;50.824;4.360;2022-09-09T10:39:05;19.70;99.90
2391;DHT22;22957;50.824;4.360;2022-09-09T10:47:41;19.80;99.90
2391;DHT22;22957;50.824;4.360;2022-09-09T10:53:08;20.10;99.90
2391;DHT22;22957;50.824;4.360;2022-09-09T10:55:44;19.70;99.90
2391;DHT22;22957;50.824;4.360;2022-09-09T10:58:18;20.20;99.90
2391;DHT22;22957;50.824;4.360;2022-09-09T11:00:51;20.30;99.90
2391;DHT22;22957;50.824;4.360;2022-09-09T11:03:23;20.50;99.90
2391;DHT22;22957;50.824;4.360;2022-09-09T11:05:55;20.10;99.90
2391;DHT22;22957;50.824;4.360;2022-09-09T11:08:25;20.10;99.90
2391;DHT22;22957;50.824;4.360;2022-09-09T11:10:54;20.30;99.90
2391;DHT22;22957;50.824;4.360;2022-09-09T11:15:55;20.80;99.90
2391;DHT22;22957;50.824;4.360;2022-09-09T11:18:24;20.70;99.90
2391;DHT22;22957;50.824;4.360;2022-09-09T11:20:55;20.80;99.90
2391;DHT22;22957;50.824;4.360;2022-09-09T11:23:40;21.10;99.90
2391;DHT22;22957;50.824;4.360;2022-09-09T11:26:14;21.20;99.90
2391;DHT22;22957;50.824;4.360;2022-09-09T11:31:54;21.20;99.90
2391;DHT22;22957;50.824;4.360;2022-09-09T11:37:03;20.90;99.90
2391;DHT22;22957;50.824;4.360;2022-09-09T11:39:44;20.90;99.90
2391;DHT22;22957;50.824;4.360;2022-09-09T11:44:41;20.80;99.90
2391;DHT22;22957;50.824;4.360;2022-09-09T11:47:30;20.70;99.90
2391;DHT22;22957;50.824;4.360;2022-09-09T11:52:46;21.10;99.90
2391;DHT22;22957;50.824;4.360;2022-09-09T12:00:42;20.90;99.90
2391;DHT22;22957;50.824;4.360;2022-09-09T12:06:19;20.60;99.90
2391;DHT22;22957;50.824;4.360;2022-09-09T12:09:44;20.80;99.90
2391;DHT22;22957;50.824;4.360;2022-09-09T12:12:23;21.30;99.90
2391;DHT22;22957;50.824;4.360;2022-09-09T12:17:49;21.10;99.90
2391;DHT22;22957;50.824;4.360;2022-09-09T12:20:30;20.60;99.90
2391;DHT22;22957;50.824;4.360;2022-09-09T12:33:43;21.20;99.90
2391;DHT22;22957;50.824;4.360;2022-09-09T12:36:19;21.40;99.90
2391;DHT22;22957;50.824;4.360;2022-09-09T12:38:47;21.00;99.90
2391;DHT22;22957;50.824;4.360;2022-09-09T12:41:21;20.80;99.90
2391;DHT22;22957;50.824;4.360;2022-09-09T12:43:47;20.80;99.90
2391;DHT22;22957;50.824;4.360;2022-09-09T12:46:34;20.80;99.90
2391;DHT22;22957;50.824;4.360;2022-09-09T12:49:04;20.80;99.90
2391;DHT22;22957;50.824;4.360;2022-09-09T12:51:33;21.30;99.90
2391;DHT22;22957;50.824;4.360;2022-09-09T12:54:00;21.10;99.90
2391;DHT22;22957;50.824;4.360;2022-09-09T12:56:29;21.30;99.90
2391;DHT22;22957;50.824;4.360;2022-09-09T12:58:58;21.20;99.90
2391;DHT22;22957;50.824;4.360;2022-09-09T13:01:29;21.10;99.90
2391;DHT22;22957;50.824;4.360;2022-09-09T13:03:57;21.30;99.90
2391;DHT22;22957;50.824;4.360;2022-09-09T13:06:24;21.90;99.90
2391;DHT22;22957;50.824;4.360;2022-09-09T13:08:52;22.20;99.90
2391;DHT22;22957;50.824;4.360;2022-09-09T13:11:43;21.80;99.90
2391;DHT22;22957;50.824;4.360;2022-09-09T13:14:21;22.10;99.90
2391;DHT22;22957;50.824;4.360;2022-09-09T13:16:57;22.00;99.90
2391;DHT22;22957;50.824;4.360;2022-09-09T13:19:23;22.50;99.90
2391;DHT22;22957;50.824;4.360;2022-09-09T13:21:53;22.30;99.90
2391;DHT22;22957;50.824;4.360;2022-09-09T13:24:37;22.70;99.90
2391;DHT22;22957;50.824;4.360;2022-09-09T13:27:17;22.50;99.90
2391;DHT22;22957;50.824;4.360;2022-09-09T13:29:52;22.80;99.90
2391;DHT22;22957;50.824;4.360;2022-09-09T13:32:20;22.70;99.90
2391;DHT22;22957;50.824;4.360;2022-09-09T13:34:55;22.60;99.90
2391;DHT22;22957;50.824;4.360;2022-09-09T13:37:29;22.40;99.90
2391;DHT22;22957;50.824;4.360;2022-09-09T13:39:57;22.70;99.90
2391;DHT22;22957;50.824;4.360;2022-09-09T13:42:26;22.70;99.90
2391;DHT22;22957;50.824;4.360;2022-09-09T13:44:53;22.60;99.90
2391;DHT22;22957;50.824;4.360;2022-09-09T13:47:21;22.80;99.90
2391;DHT22;22957;50.824;4.360;2022-09-09T13:49:48;22.70;99.90
2391;DHT22;22957;50.824;4.360;2022-09-09T13:52:17;22.70;99.90
2391;DHT22;22957;50.824;4.360;2022-09-09T13:54:48;22.90;99.90
2391;DHT22;22957;50.824;4.360;2022-09-09T13:57:23;23.00;99.90
2391;DHT22;22957;50.824;4.360;2022-09-09T13:59:51;22.90;99.90
2391;DHT22;22957;50.824;4.360;2022-09-09T14:02:17;22.90;99.90
2391;DHT22;22957;50.824;4.360;2022-09-09T14:04:44;23.00;99.90
2391;DHT22;22957;50.824;4.360;2022-09-09T14:07:15;23.00;99.90
2391;DHT22;22957;50.824;4.360;2022-09-09T14:09:42;22.90;99.90
2391;DHT22;22957;50.824;4.360;2022-09-09T14:12:12;22.90;99.90
2391;DHT22;22957;50.824;4.360;2022-09-09T14:14:38;23.00;99.90
2391;DHT22;22957;50.824;4.360;2022-09-09T14:17:04;22.80;99.90
2391;DHT22;22957;50.824;4.360;2022-09-09T14:19:31;22.80;99.90
2391;DHT22;22957;50.824;4.360;2022-09-09T14:21:58;22.60;99.90
2391;DHT22;22957;50.824;4.360;2022-09-09T14:24:24;22.60;99.90
2391;DHT22;22957;50.824;4.360;2022-09-09T14:26:50;22.60;99.90
2391;DHT22;22957;50.824;4.360;2022-09-09T14:29:16;22.50;99.90
2391;DHT22;22957;50.824;4.360;2022-09-09T14:31:42;22.90;99.90
2391;DHT22;22957;50.824;4.360;2022-09-09T14:34:08;23.10;99.90
2391;DHT22;22957;50.824;4.360;2022-09-09T14:36:35;22.90;99.90
2391;DHT22;22957;50.824;4.360;2022-09-09T14:39:01;22.60;99.90
2391;DHT22;22957;50.824;4.360;2022-09-09T14:41:26;22.40;99.90
2391;DHT22;22957;50.824;4.360;2022-09-09T14:43:52;22.50;99.90
2391;DHT22;22957;50.824;4.360;2022-09-09T14:46:20;23.20;99.90
2391;DHT22;22957;50.824;4.360;2022-09-09T14:48:46;23.00;99.90
2391;DHT22;22957;50.824;4.360;2022-09-09T14:51:18;22.80;99.90
2391;DHT22;22957;50.824;4.360;2022-09-09T14:53:46;23.20;99.90
2391;DHT22;22957;50.824;4.360;2022-09-09T14:56:15;22.80;99.90
2391;DHT22;22957;50.824;4.360;2022-09-09T14:58:42;23.00;99.90
2391;DHT22;22957;50.824;4.360;2022-09-09T15:01:14;23.00;99.90
2391;DHT22;22957;50.824;4.360;2022-09-09T15:03:41;23.00;99.90
2391;DHT22;22957;50.824;4.360;2022-09-09T15:06:12;23.00;99.90
2391;DHT22;22957;50.824;4.360;2022-09-09T15:08:40;23.20;99.90
2391;DHT22;22957;50.824;4.360;2022-09-09T15:11:07;23.40;99.90
2391;DHT22;22957;50.824;4.360;2022-09-09T15:13:36;23.60;99.90
2391;DHT22;22957;50.824;4.360;2022-09-09T15:16:06;23.50;99.90
2391;DHT22;22957;50.824;4.360;2022-09-09T15:18:33;23.20;99.90
2391;DHT22;22957;50.824;4.360;2022-09-09T15:21:09;23.10;99.90
2391;DHT22;22957;50.824;4.360;2022-09-09T15:23:35;23.00;99.90
2391;DHT22;22957;50.824;4.360;2022-09-09T15:26:02;23.00;99.90
2391;DHT22;22957;50.824;4.360;2022-09-09T15:28:28;23.20;99.90
2391;DHT22;22957;50.824;4.360;2022-09-09T15:30:54;22.90;99.90
2391;DHT22;22957;50.824;4.360;2022-09-09T15:33:22;22.40;99.90
2391;DHT22;22957;50.824;4.360;2022-09-09T15:35:48;22.30;99.90
2391;DHT22;22957;50.824;4.360;2022-09-09T15:38:15;22.20;99.90
2391;DHT22;22957;50.824;4.360;2022-09-09T15:40:43;22.20;99.90
2391;DHT22;22957;50.824;4.360;2022-09-09T15:43:09;22.40;99.90
2391;DHT22;22957;50.824;4.360;2022-09-09T15:45:36;22.40;99.90
2391;DHT22;22957;50.824;4.360;2022-09-09T15:48:03;22.20;99.90
2391;DHT22;22957;50.824;4.360;2022-09-09T15:50:29;22.50;99.90
2391;DHT22;22957;50.824;4.360;2022-09-09T15:52:58;22.50;99.90
2391;DHT22;22957;50.824;4.360;2022-09-09T15:55:24;22.40;99.90
2391;DHT22;22957;50.824;4.360;2022-09-09T15:57:51;22.50;99.90
2391;DHT22;22957;50.824;4.360;2022-09-09T16:00:23;22.20;99.90
2391;DHT22;22957;50.824;4.360;2022-09-09T16:02:49;22.00;99.90
2391;DHT22;22957;50.824;4.360;2022-09-09T16:05:15;22.00;99.90
2391;DHT22;22957;50.824;4.360;2022-09-09T16:07:41;21.80;99.90
2391;DHT22;22957;50.824;4.360;2022-09-09T16:10:08;21.90;99.90
2391;DHT22;22957;50.824;4.360;2022-09-09T16:12:34;21.70;99.90
2391;DHT22;22957;50.824;4.360;2022-09-09T16:15:00;21.60;99.90
2391;DHT22;22957;50.824;4.360;2022-09-09T16:17:26;21.50;99.90
2391;DHT22;22957;50.824;4.360;2022-09-09T16:19:53;21.20;99.90
2391;DHT22;22957;50.824;4.360;2022-09-09T16:22:19;21.40;99.90
2391;DHT22;22957;50.824;4.360;2022-09-09T16:24:46;21.60;99.90
2391;DHT22;22957;50.824;4.360;2022-09-09T16:27:12;21.30;99.90
2391;DHT22;22957;50.824;4.360;2022-09-09T16:29:39;21.10;99.90
2391;DHT22;22957;50.824;4.360;2022-09-09T16:32:05;21.10;99.90
2391;DHT22;22957;50.824;4.360;2022-09-09T16:34:32;20.60;99.90
2391;DHT22;22957;50.824;4.360;2022-09-09T16:36:58;20.30;99.90
2391;DHT22;22957;50.824;4.360;2022-09-09T16:39:24;20.40;99.90
2391;DHT22;22957;50.824;4.360;2022-09-09T16:41:50;20.40;99.90
2391;DHT22;22957;50.824;4.360;2022-09-09T16:44:18;20.10;99.90
2391;DHT22;22957;50.824;4.360;2022-09-09T16:46:45;19.80;99.90
2391;DHT22;22957;50.824;4.360;2022-09-09T16:49:14;19.50;99.90
2391;DHT22;22957;50.824;4.360;2022-09-09T16:51:47;19.40;99.90
2391;DHT22;22957;50.824;4.360;2022-09-09T16:54:14;19.40;99.90
2391;DHT22;22957;50.824;4.360;2022-09-09T16:56:43;19.50;99.90
2391;DHT22;22957;50.824;4.360;2022-09-09T16:59:15;19.70;99.90
2391;DHT22;22957;50.824;4.360;2022-09-09T17:01:41;20.10;99.90
2391;DHT22;22957;50.824;4.360;2022-09-09T17:04:12;19.90;99.90
2391;DHT22;22957;50.824;4.360;2022-09-09T17:06:39;20.10;99.90
2391;DHT22;22957;50.824;4.360;2022-09-09T17:09:10;20.10;99.90
2391;DHT22;22957;50.824;4.360;2022-09-09T17:11:37;20.00;99.90
2391;DHT22;22957;50.824;4.360;2022-09-09T17:14:04;19.90;99.90
2391;DHT22;22957;50.824;4.360;2022-09-09T17:16:31;19.70;99.90
2391;DHT22;22957;50.824;4.360;2022-09-09T17:19:00;19.80;99.90
2391;DHT22;22957;50.824;4.360;2022-09-09T17:21:30;19.70;99.90
2391;DHT22;22957;50.824;4.360;2022-09-09T17:23:57;19.60;99.90
2391;DHT22;22957;50.824;4.360;2022-09-09T17:26:26;19.50;99.90
2391;DHT22;22957;50.824;4.360;2022-09-09T17:28:53;19.70;99.90
2391;DHT22;22957;50.824;4.360;2022-09-09T17:31:20;19.50;99.90
2391;DHT22;22957;50.824;4.360;2022-09-09T17:33:48;19.30;99.90
2391;DHT22;22957;50.824;4.360;2022-09-09T17:36:23;19.60;99.90
2391;DHT22;22957;50.824;4.360;2022-09-09T17:38:50;19.30;99.90
2391;DHT22;22957;50.824;4.360;2022-09-09T17:41:25;19.40;99.90
2391;DHT22;22957;50.824;4.360;2022-09-09T17:43:52;19.60;99.90
2391;DHT22;22957;50.824;4.360;2022-09-09T17:46:23;19.40;99.90
2391;DHT22;22957;50.824;4.360;2022-09-09T17:48:54;19.50;99.90
2391;DHT22;22957;50.824;4.360;2022-09-09T17:51:30;19.50;99.90
2391;DHT22;22957;50.824;4.360;2022-09-09T17:54:09;19.60;99.90
2391;DHT22;22957;50.824;4.360;2022-09-09T17:56:35;19.40;99.90
2391;DHT22;22957;50.824;4.360;2022-09-09T17:59:03;19.30;99.90